首页
METAR-TAF:

METAR-TAF

机场 :

马普托国际机场

马普托, 莫桑比克

纬度: 25-55S, 经度: 032-34E, 海拔: 39米

当前天气观测

该预报发布于23分钟前的01:00 UTC
风速2节,风向多变
温度 14°C
湿度 88%
气压 1027 hPa
能见度10公里或以上
少量云层高于3000英尺

METAR: FQMA 240100Z VRB02KT 9999 FEW030 14/12 Q1027 NOSIG

时间: 03:23 (01:23 UTC)

预报

该预报发布于3小时和23分钟前的22:00 UTC
预报有效从24日的 00点(UTC)到 25日的 06点(UTC)
风速2节,风向多变
能见度10公里或以上
少量云层高于2500英尺
成为
从 24日的 06点(UTC)到 24日的 08点(UTC)
风速6节,风向
能见度10公里或以上
1500米以下无云,无积雨云
成为
从 24日的 12点(UTC)到 24日的 14点(UTC)
风速12节,风向东转东北
成为
从 24日的 18点(UTC)到 24日的 20点(UTC)
风速12节,风向东南
能见度10公里或以上
多云层高于2000英尺
成为
从 25日的 00点(UTC)到 25日的 02点(UTC)
风速10节,风向

TAF: FQMA 232200Z 2400/2506 VRB02KT 9999 FEW025 BECMG 2406/2408 01006KT CAVOK BECMG 2412/2414 07012KT BECMG 2418/2420 14012KT 9999 BKN020 BECMG 2500/2502 08010KT TX29/2413Z TN19/2403Z

超过4000个机场的气象观测和天气预报(METAR&TAF报告)。

可查询的气象台以黄色和红色小点在地图上表示。

将鼠标移到小点上方,可查看气象台名称。

然后点击查看天气观测和预报。

如需切换地图:点击带黑十字的绿色按钮放大地图;点击带横线的绿色按钮缩小地图;或者点击绿色箭头查看邻近地区的地图。


METAR-TAF: